首页
METAR-TAF:

METAR-TAF

机场 :

金海国际机场

釜山廣域, 大韩民国

纬度: 35-11N, 经度: 128-56E, 海拔: 4米

当前天气观测

该预报发布于33分钟前的09:00 UTC
风速16节,风向东北
温度 8°C
湿度 76%
气压 1010 hPa
能见度10公里或以上
多云层高于2500英尺
阴天层高于3000英尺

METAR: RKPK 050900Z 04016KT 9999 BKN025 OVC030 08/04 Q1010

时间: 18:33 (09:33 UTC)

预报

该预报发布于4小时和33分钟前的05:00 UTC
预报有效从05日的 06点(UTC)到 06日的 12点(UTC)
风速8节,风向北转东北
能見度: 9000
多云层高于2000英尺
阴天层高于3000英尺
小雨
成为
从 05日的 11点(UTC)到 05日的 12点(UTC)
风速6节,风向
能见度10公里或以上
散云层高于2000英尺
多云层高于3000英尺
成为
从 06日的 03点(UTC)到 06日的 04点(UTC)
风速8节,风向北转东北,有时为18节阵风
多云层高于3000英尺
成为
从 06日的 06点(UTC)到 06日的 07点(UTC)
风速8节,风向北转东北
短暂存在
从 06日的 06点(UTC)到 06日的 09点(UTC)
能見度: 9000
散云层高于2000英尺
阴天层高于3000英尺
小雨,

TAF: RKPK 050500Z 0506/0612 03008KT 9000 -RA BKN020 OVC030 TX09/0606Z TN06/0621Z BECMG 0511/0512 36006KT 9999 NSW SCT020 BKN030 BECMG 0603/0604 03008G18KT BKN030 BECMG 0606/0607 03008KT TEMPO 0606/0609 9000 -RA SCT020 OVC030

超过4000个机场的气象观测和天气预报(METAR&TAF报告)。

可查询的气象台以黄色和红色小点在地图上表示。

将鼠标移到小点上方,可查看气象台名称。

然后点击查看天气观测和预报。

如需切换地图:点击带黑十字的绿色按钮放大地图;点击带横线的绿色按钮缩小地图;或者点击绿色箭头查看邻近地区的地图。


METAR-TAF: